Time,TemperatureF,DewpointF,PressureIn,WindDirection,WindDirectionDegrees,WindSpeedMPH,WindSpeedGustMPH,Humidity,HourlyPrecipIn,Conditions,Clouds,dailyrainin,SoftwareType,DateUTC
2013-11-28 00:01:00,27.9,24.3,30.22,East,90,0.0,3.0,86,0.00,,,0.00,Weather View 32 v70,2013-11-28 08:01:00,
2013-11-28 00:06:00,27.9,24.3,30.22,East,90,0.0,3.0,86,0.00,,,0.00,Weather View 32 v70,2013-11-28 08:06:00,
2013-11-28 00:11:00,27.6,24.0,30.22,East,90,0.0,3.0,86,0.00,,,0.00,Weather View 32 v70,2013-11-28 08:11:00,
2013-11-28 00:16:00,27.5,23.9,30.22,East,90,0.0,3.0,86,0.00,,,0.00,Weather View 32 v70,2013-11-28 08:16:00,
2013-11-28 00:21:00,27.3,23.7,30.22,East,90,0.0,3.0,86,0.00,,,0.00,Weather View 32 v70,2013-11-28 08:21:00,
2013-11-28 00:26:00,27.2,23.6,30.22,East,90,0.0,3.0,86,0.00,,,0.00,Weather View 32 v70,2013-11-28 08:26:00,
2013-11-28 00:31:00,27.0,23.4,30.22,East,90,0.0,3.0,86,0.00,,,0.00,Weather View 32 v70,2013-11-28 08:31:00,
2013-11-28 00:36:00,26.7,23.1,30.22,East,90,0.0,3.0,86,0.00,,,0.00,Weather View 32 v70,2013-11-28 08:36:00,
2013-11-28 00:41:00,26.4,22.8,30.22,East,90,0.0,3.0,86,0.00,,,0.00,Weather View 32 v70,2013-11-28 08:41:00,
2013-11-28 00:46:00,26.3,22.7,30.22,East,90,0.0,3.0,86,0.00,,,0.00,Weather View 32 v70,2013-11-28 08:46:00,
2013-11-28 00:51:00,26.3,23.0,30.23,East,90,0.0,0.0,87,0.00,,,0.00,Weather View 32 v70,2013-11-28 08:51:00,
2013-11-28 00:56:00,26.3,23.0,30.23,East,90,0.0,0.0,87,0.00,,,0.00,Weather View 32 v70,2013-11-28 08:56:00,
2013-11-28 01:01:00,26.1,22.8,30.23,East,90,0.0,0.0,87,0.00,,,0.00,Weather View 32 v70,2013-11-28 09:01:00,
2013-11-28 01:06:00,26.1,22.8,30.23,East,90,0.0,0.0,87,0.00,,,0.00,Weather View 32 v70,2013-11-28 09:06:00,
2013-11-28 01:11:00,26.3,23.2,30.23,East,90,0.0,0.0,88,0.00,,,0.00,Weather View 32 v70,2013-11-28 09:11:00,
2013-11-28 01:16:00,26.4,23.3,30.23,East,90,0.0,0.0,88,0.00,,,0.00,Weather View 32 v70,2013-11-28 09:16:00,
2013-11-28 01:21:00,26.4,23.3,30.23,East,90,0.0,0.0,88,0.00,,,0.00,Weather View 32 v70,2013-11-28 09:21:00,
2013-11-28 01:26:00,26.3,23.2,30.23,East,90,0.0,0.0,88,0.00,,,0.00,Weather View 32 v70,2013-11-28 09:26:00,
2013-11-28 01:31:00,26.1,23.0,30.23,East,90,3.0,0.0,88,0.00,,,0.00,Weather View 32 v70,2013-11-28 09:31:00,
2013-11-28 01:36:00,26.1,23.0,30.23,East,90,0.0,5.0,88,0.00,,,0.00,Weather View 32 v70,2013-11-28 09:36:00,
2013-11-28 01:41:00,26.1,23.0,30.23,East,90,0.0,5.0,88,0.00,,,0.00,Weather View 32 v70,2013-11-28 09:41:00,
2013-11-28 01:46:00,26.1,23.0,30.23,East,90,0.0,5.0,88,0.00,,,0.00,Weather View 32 v70,2013-11-28 09:46:00,
2013-11-28 01:51:00,26.3,23.2,30.23,East,90,2.0,5.0,88,0.00,,,0.00,Weather View 32 v70,2013-11-28 09:51:00,
2013-11-28 01:56:00,26.3,23.2,30.23,East,90,0.0,5.0,88,0.00,,,0.00,Weather View 32 v70,2013-11-28 09:56:00,
2013-11-28 02:01:00,26.3,23.2,30.23,East,90,0.0,5.0,88,0.00,,,0.00,Weather View 32 v70,2013-11-28 10:01:00,
2013-11-28 02:06:00,26.1,23.0,30.24,East,90,0.0,5.0,88,0.00,,,0.00,Weather View 32 v70,2013-11-28 10:06:00,
2013-11-28 02:11:00,26.1,23.0,30.24,East,90,0.0,5.0,88,0.00,,,0.00,Weather View 32 v70,2013-11-28 10:11:00,
2013-11-28 02:16:00,26.0,22.9,30.24,East,90,0.0,5.0,88,0.00,,,0.00,Weather View 32 v70,2013-11-28 10:16:00,
2013-11-28 02:21:00,26.0,22.9,30.24,East,90,0.0,5.0,88,0.00,,,0.00,Weather View 32 v70,2013-11-28 10:21:00,
2013-11-28 02:26:00,25.8,22.7,30.24,East,90,0.0,5.0,88,0.00,,,0.00,Weather View 32 v70,2013-11-28 10:26:00,
2013-11-28 02:31:00,25.8,22.7,30.24,East,90,0.0,5.0,88,0.00,,,0.00,Weather View 32 v70,2013-11-28 10:31:00,
2013-11-28 02:36:00,25.7,22.6,30.24,East,90,0.0,2.0,88,0.00,,,0.00,Weather View 32 v70,2013-11-28 10:36:00,
2013-11-28 02:41:00,25.7,22.6,30.24,East,90,0.0,2.0,88,0.00,,,0.00,Weather View 32 v70,2013-11-28 10:41:00,
2013-11-28 02:46:00,25.7,22.6,30.24,East,90,0.0,2.0,88,0.00,,,0.00,Weather View 32 v70,2013-11-28 10:46:00,
2013-11-28 02:51:00,25.7,22.6,30.24,East,90,0.0,2.0,88,0.00,,,0.00,Weather View 32 v70,2013-11-28 10:51:00,
2013-11-28 02:56:00,25.7,22.6,30.24,East,90,0.0,2.0,88,0.00,,,0.00,Weather View 32 v70,2013-11-28 10:56:00,
2013-11-28 03:01:00,25.7,22.6,30.24,East,90,0.0,2.0,88,0.00,,,0.00,Weather View 32 v70,2013-11-28 11:01:00,
2013-11-28 03:06:00,25.7,22.6,30.24,East,90,0.0,2.0,88,0.00,,,0.00,Weather View 32 v70,2013-11-28 11:06:00,
2013-11-28 03:11:00,25.7,22.6,30.24,East,90,0.0,2.0,88,0.00,,,0.00,Weather View 32 v70,2013-11-28 11:11:00,
2013-11-28 03:16:00,25.8,23.0,30.24,East,90,0.0,2.0,89,0.00,,,0.00,Weather View 32 v70,2013-11-28 11:16:00,
2013-11-28 03:21:00,26.0,23.2,30.24,East,90,2.0,2.0,89,0.00,,,0.00,Weather View 32 v70,2013-11-28 11:21:00,
2013-11-28 03:26:00,26.1,23.3,30.24,East,90,0.0,5.0,89,0.00,,,0.00,Weather View 32 v70,2013-11-28 11:26:00,
2013-11-28 03:31:00,26.3,23.5,30.25,East,90,3.0,5.0,89,0.00,,,0.00,Weather View 32 v70,2013-11-28 11:31:00,
2013-11-28 03:36:00,27.2,24.7,30.24,East,90,0.0,5.0,90,0.00,,,0.00,Weather View 32 v70,2013-11-28 11:36:00,
2013-11-28 03:41:00,27.5,25.0,30.25,East,90,0.0,5.0,90,0.00,,,0.00,Weather View 32 v70,2013-11-28 11:41:00,
2013-11-28 03:46:00,27.6,24.8,30.25,East,90,0.0,5.0,89,0.00,,,0.00,Weather View 32 v70,2013-11-28 11:46:00,
2013-11-28 03:51:00,27.6,24.8,30.24,East,90,0.0,5.0,89,0.00,,,0.00,Weather View 32 v70,2013-11-28 11:51:00,
2013-11-28 03:56:00,27.3,24.5,30.24,East,90,0.0,5.0,89,0.00,,,0.00,Weather View 32 v70,2013-11-28 11:56:00,
2013-11-28 04:01:00,27.0,23.9,30.24,East,90,0.0,5.0,88,0.00,,,0.00,Weather View 32 v70,2013-11-28 12:01:00,
2013-11-28 04:06:00,26.9,23.8,30.24,East,90,0.0,5.0,88,0.00,,,0.00,Weather View 32 v70,2013-11-28 12:06:00,
2013-11-28 04:11:00,26.7,23.6,30.24,East,90,0.0,5.0,88,0.00,,,0.00,Weather View 32 v70,2013-11-28 12:11:00,
2013-11-28 04:16:00,26.4,23.3,30.24,East,90,0.0,5.0,88,0.00,,,0.00,Weather View 32 v70,2013-11-28 12:16:00,
2013-11-28 04:21:00,26.3,23.2,30.24,East,90,0.0,5.0,88,0.00,,,0.00,Weather View 32 v70,2013-11-28 12:21:00,
2013-11-28 04:26:00,26.0,22.7,30.24,East,90,0.0,3.0,87,0.00,,,0.00,Weather View 32 v70,2013-11-28 12:26:00,
2013-11-28 04:31:00,25.8,22.7,30.24,East,90,0.0,3.0,88,0.00,,,0.00,Weather View 32 v70,2013-11-28 12:31:00,
2013-11-28 04:36:00,25.7,22.6,30.24,East,90,0.0,0.0,88,0.00,,,0.00,Weather View 32 v70,2013-11-28 12:36:00,
2013-11-28 04:41:00,25.7,22.6,30.25,East,90,0.0,0.0,88,0.00,,,0.00,Weather View 32 v70,2013-11-28 12:41:00,
2013-11-28 04:46:00,25.7,22.6,30.24,East,90,0.0,0.0,88,0.00,,,0.00,Weather View 32 v70,2013-11-28 12:46:00,
2013-11-28 04:51:00,25.6,22.5,30.24,East,90,0.0,0.0,88,0.00,,,0.00,Weather View 32 v70,2013-11-28 12:51:00,
2013-11-28 04:56:00,25.4,22.3,30.24,East,90,0.0,0.0,88,0.00,,,0.00,Weather View 32 v70,2013-11-28 12:56:00,
2013-11-28 05:01:00,25.3,22.2,30.24,East,90,0.0,0.0,88,0.00,,,0.00,Weather View 32 v70,2013-11-28 13:01:00,
2013-11-28 05:06:00,25.4,22.3,30.24,East,90,0.0,0.0,88,0.00,,,0.00,Weather View 32 v70,2013-11-28 13:06:00,
2013-11-28 05:11:00,25.6,22.5,30.24,East,90,0.0,0.0,88,0.00,,,0.00,Weather View 32 v70,2013-11-28 13:11:00,
2013-11-28 05:16:00,25.6,22.5,30.24,East,90,0.0,0.0,88,0.00,,,0.00,Weather View 32 v70,2013-11-28 13:16:00,
2013-11-28 05:21:00,25.6,22.5,30.24,East,90,0.0,0.0,88,0.00,,,0.00,Weather View 32 v70,2013-11-28 13:21:00,
2013-11-28 05:26:00,25.6,22.5,30.24,East,90,0.0,0.0,88,0.00,,,0.00,Weather View 32 v70,2013-11-28 13:26:00,
2013-11-28 05:31:00,25.7,22.9,30.24,East,90,0.0,0.0,89,0.00,,,0.00,Weather View 32 v70,2013-11-28 13:31:00,
2013-11-28 05:36:00,26.0,23.2,30.24,East,90,0.0,0.0,89,0.00,,,0.00,Weather View 32 v70,2013-11-28 13:36:00,
2013-11-28 05:41:00,26.3,23.5,30.24,East,90,0.0,0.0,89,0.00,,,0.00,Weather View 32 v70,2013-11-28 13:41:00,
2013-11-28 05:46:00,26.7,24.2,30.24,East,90,0.0,1.0,90,0.00,,,0.00,Weather View 32 v70,2013-11-28 13:46:00,
2013-11-28 05:51:00,26.7,23.9,30.24,East,90,0.0,1.0,89,0.00,,,0.00,Weather View 32 v70,2013-11-28 13:51:00,
2013-11-28 05:56:00,26.3,23.2,30.24,East,90,0.0,1.0,88,0.00,,,0.00,Weather View 32 v70,2013-11-28 13:56:00,
2013-11-28 06:01:00,26.0,22.9,30.24,East,90,0.0,1.0,88,0.00,,,0.00,Weather View 32 v70,2013-11-28 14:01:00,
2013-11-28 06:06:00,25.8,22.7,30.24,East,90,1.0,2.0,88,0.00,,,0.00,Weather View 32 v70,2013-11-28 14:06:00,
2013-11-28 06:11:00,25.6,22.5,30.24,East,90,0.0,2.0,88,0.00,,,0.00,Weather View 32 v70,2013-11-28 14:11:00,
2013-11-28 06:16:00,25.4,22.3,30.24,East,90,1.0,3.0,88,0.00,,,0.00,Weather View 32 v70,2013-11-28 14:16:00,
2013-11-28 06:21:00,25.3,22.2,30.24,East,90,0.0,3.0,88,0.00,,,0.00,Weather View 32 v70,2013-11-28 14:21:00,
2013-11-28 06:26:00,25.3,22.2,30.24,East,90,0.0,3.0,88,0.00,,,0.00,Weather View 32 v70,2013-11-28 14:26:00,
2013-11-28 06:31:00,25.3,22.2,30.25,East,90,0.0,3.0,88,0.00,,,0.00,Weather View 32 v70,2013-11-28 14:31:00,
2013-11-28 06:36:00,25.3,22.2,30.25,East,90,0.0,3.0,88,0.00,,,0.00,Weather View 32 v70,2013-11-28 14:36:00,
2013-11-28 06:41:00,25.3,22.2,30.24,East,90,0.0,3.0,88,0.00,,,0.00,Weather View 32 v70,2013-11-28 14:41:00,
2013-11-28 06:46:00,25.1,22.0,30.24,East,90,0.0,3.0,88,0.00,,,0.00,Weather View 32 v70,2013-11-28 14:46:00,
2013-11-28 06:51:00,25.1,22.0,30.24,East,90,0.0,3.0,88,0.00,,,0.00,Weather View 32 v70,2013-11-28 14:51:00,
2013-11-28 06:56:00,25.0,22.0,30.25,East,90,0.0,3.0,88,0.00,,,0.00,Weather View 32 v70,2013-11-28 14:56:00,
2013-11-28 07:01:00,25.0,22.0,30.25,East,90,0.0,3.0,88,0.00,,,0.00,Weather View 32 v70,2013-11-28 15:01:00,
2013-11-28 07:06:00,24.8,21.8,30.25,East,90,0.0,3.0,88,0.00,,,0.00,Weather View 32 v70,2013-11-28 15:06:00,
2013-11-28 07:11:00,24.8,21.8,30.25,East,90,0.0,3.0,88,0.00,,,0.00,Weather View 32 v70,2013-11-28 15:11:00,
2013-11-28 07:16:00,24.8,21.8,30.25,East,90,0.0,3.0,88,0.00,,,0.00,Weather View 32 v70,2013-11-28 15:16:00,
2013-11-28 07:21:00,24.7,21.7,30.25,East,90,0.0,2.0,88,0.00,,,0.00,Weather View 32 v70,2013-11-28 15:21:00,
2013-11-28 07:26:00,24.7,21.7,30.25,East,90,0.0,0.0,88,0.00,,,0.00,Weather View 32 v70,2013-11-28 15:26:00,
2013-11-28 07:31:00,24.7,21.7,30.25,East,90,0.0,0.0,88,0.00,,,0.00,Weather View 32 v70,2013-11-28 15:31:00,
2013-11-28 07:36:00,25.0,22.0,30.25,East,90,0.0,0.0,88,0.00,,,0.00,Weather View 32 v70,2013-11-28 15:36:00,
2013-11-28 07:41:00,25.1,22.3,30.25,East,90,0.0,0.0,89,0.00,,,0.00,Weather View 32 v70,2013-11-28 15:41:00,
2013-11-28 07:46:00,25.4,22.6,30.25,East,90,0.0,0.0,89,0.00,,,0.00,Weather View 32 v70,2013-11-28 15:46:00,
2013-11-28 07:51:00,25.6,22.8,30.25,East,90,0.0,0.0,89,0.00,,,0.00,Weather View 32 v70,2013-11-28 15:51:00,
2013-11-28 07:56:00,26.0,23.2,30.26,East,90,0.0,0.0,89,0.00,,,0.00,Weather View 32 v70,2013-11-28 15:56:00,
2013-11-28 08:01:00,26.3,23.5,30.26,East,90,0.0,0.0,89,0.00,,,0.00,Weather View 32 v70,2013-11-28 16:01:00,
2013-11-28 08:06:00,26.6,24.1,30.26,East,90,0.0,0.0,90,0.00,,,0.00,Weather View 32 v70,2013-11-28 16:06:00,
2013-11-28 08:11:00,26.9,24.4,30.26,East,90,0.0,0.0,90,0.00,,,0.00,Weather View 32 v70,2013-11-28 16:11:00,
2013-11-28 08:16:00,27.0,24.5,30.26,East,90,0.0,0.0,90,0.00,,,0.00,Weather View 32 v70,2013-11-28 16:16:00,
2013-11-28 08:21:00,27.3,24.8,30.26,East,90,0.0,0.0,90,0.00,,,0.00,Weather View 32 v70,2013-11-28 16:21:00,
2013-11-28 08:26:00,27.6,25.1,30.27,East,90,0.0,0.0,90,0.00,,,0.00,Weather View 32 v70,2013-11-28 16:26:00,
2013-11-28 08:31:00,27.9,25.1,30.26,East,90,0.0,0.0,89,0.00,,,0.00,Weather View 32 v70,2013-11-28 16:31:00,
2013-11-28 08:36:00,28.1,25.0,30.26,East,90,0.0,0.0,88,0.00,,,0.00,Weather View 32 v70,2013-11-28 16:36:00,
2013-11-28 08:41:00,28.4,25.3,30.26,East,90,0.0,0.0,88,0.00,,,0.00,Weather View 32 v70,2013-11-28 16:41:00,
2013-11-28 08:46:00,28.5,25.1,30.26,East,90,0.0,0.0,87,0.00,,,0.00,Weather View 32 v70,2013-11-28 16:46:00,
2013-11-28 08:51:00,28.8,25.4,30.27,East,90,0.0,0.0,87,0.00,,,0.00,Weather View 32 v70,2013-11-28 16:51:00,
2013-11-28 08:56:00,29.1,25.4,30.27,East,90,0.0,0.0,86,0.00,,,0.00,Weather View 32 v70,2013-11-28 16:56:00,
2013-11-28 09:01:00,29.1,25.2,30.27,East,90,0.0,0.0,85,0.00,,,0.00,Weather View 32 v70,2013-11-28 17:01:00,
2013-11-28 09:06:00,29.5,25.5,30.27,East,90,0.0,0.0,85,0.00,,,0.00,Weather View 32 v70,2013-11-28 17:06:00,
2013-11-28 09:11:00,29.7,25.5,30.27,East,90,0.0,0.0,84,0.00,,,0.00,Weather View 32 v70,2013-11-28 17:11:00,
2013-11-28 09:16:00,29.8,25.6,30.27,East,90,0.0,0.0,84,0.00,,,0.00,Weather View 32 v70,2013-11-28 17:16:00,
2013-11-28 09:21:00,30.1,25.9,30.27,East,90,0.0,0.0,84,0.00,,,0.00,Weather View 32 v70,2013-11-28 17:21:00,
2013-11-28 09:26:00,30.4,25.9,30.27,East,90,0.0,0.0,83,0.00,,,0.00,Weather View 32 v70,2013-11-28 17:26:00,
2013-11-28 09:31:00,30.9,26.3,30.26,East,90,0.0,0.0,83,0.00,,,0.00,Weather View 32 v70,2013-11-28 17:31:00,
2013-11-28 09:36:00,31.2,26.3,30.27,East,90,0.0,3.0,82,0.00,,,0.00,Weather View 32 v70,2013-11-28 17:36:00,
2013-11-28 09:41:00,31.3,26.4,30.27,East,90,0.0,3.0,82,0.00,,,0.00,Weather View 32 v70,2013-11-28 17:41:00,
2013-11-28 09:46:00,31.8,27.5,30.27,East,90,0.0,3.0,84,0.00,,,0.00,Weather View 32 v70,2013-11-28 17:46:00,
2013-11-28 09:51:00,32.2,27.6,30.27,East,90,0.0,3.0,83,0.00,,,0.00,Weather View 32 v70,2013-11-28 17:51:00,
2013-11-28 09:56:00,32.2,27.0,30.27,East,90,0.0,3.0,81,0.00,,,0.00,Weather View 32 v70,2013-11-28 17:56:00,
2013-11-28 10:01:00,32.4,27.2,30.27,East,90,0.0,3.0,81,0.00,,,0.00,Weather View 32 v70,2013-11-28 18:01:00,
2013-11-28 10:06:00,32.5,27.3,30.27,East,90,0.0,3.0,81,0.00,,,0.00,Weather View 32 v70,2013-11-28 18:06:00,
2013-11-28 10:11:00,32.8,27.3,30.27,East,90,3.0,5.0,80,0.00,,,0.00,Weather View 32 v70,2013-11-28 18:11:00,
2013-11-28 10:16:00,33.1,27.6,30.27,East,90,0.0,5.0,80,0.00,,,0.00,Weather View 32 v70,2013-11-28 18:16:00,
2013-11-28 10:21:00,33.2,27.1,30.27,East,90,0.0,5.0,78,0.00,,,0.00,Weather View 32 v70,2013-11-28 18:21:00,
2013-11-28 10:26:00,33.4,27.0,30.27,East,90,2.0,5.0,77,0.00,,,0.00,Weather View 32 v70,2013-11-28 18:26:00,
2013-11-28 10:31:00,33.4,27.0,30.26,East,90,2.0,5.0,77,0.00,,,0.00,Weather View 32 v70,2013-11-28 18:31:00,
2013-11-28 10:36:00,33.5,27.1,30.26,East,90,2.0,5.0,77,0.00,,,0.00,Weather View 32 v70,2013-11-28 18:36:00,
2013-11-28 10:41:00,34.0,27.5,30.26,East,90,0.0,5.0,77,0.00,,,0.00,Weather View 32 v70,2013-11-28 18:41:00,
2013-11-28 10:46:00,34.4,27.9,30.25,East,90,0.0,5.0,77,0.00,,,0.00,Weather View 32 v70,2013-11-28 18:46:00,
2013-11-28 10:51:00,34.6,27.2,30.25,East,89,0.0,6.0,74,0.00,,,0.00,Weather View 32 v70,2013-11-28 18:51:00,
2013-11-28 10:56:00,34.6,27.2,30.25,East,89,0.0,6.0,74,0.00,,,0.00,Weather View 32 v70,2013-11-28 18:56:00,
2013-11-28 11:01:00,34.6,27.2,30.25,East,89,0.0,6.0,74,0.00,,,0.00,Weather View 32 v70,2013-11-28 19:01:00,
2013-11-28 11:06:00,34.7,27.3,30.25,East,87,5.0,7.0,74,0.00,,,0.00,Weather View 32 v70,2013-11-28 19:06:00,
2013-11-28 11:11:00,35.0,27.5,30.25,East,87,0.0,7.0,74,0.00,,,0.00,Weather View 32 v70,2013-11-28 19:11:00,
2013-11-28 11:16:00,35.3,27.5,30.25,East,87,2.0,7.0,73,0.00,,,0.00,Weather View 32 v70,2013-11-28 19:16:00,
2013-11-28 11:21:00,35.8,27.7,30.24,East,87,0.0,7.0,72,0.00,,,0.00,Weather View 32 v70,2013-11-28 19:21:00,
2013-11-28 11:26:00,36.3,28.1,30.24,East,87,0.0,7.0,72,0.00,,,0.00,Weather View 32 v70,2013-11-28 19:26:00,
2013-11-28 11:31:00,36.8,27.9,30.24,East,87,1.0,7.0,70,0.00,,,0.00,Weather View 32 v70,2013-11-28 19:31:00,
2013-11-28 11:36:00,37.2,28.3,30.24,East,87,0.0,7.0,70,0.00,,,0.00,Weather View 32 v70,2013-11-28 19:36:00,
2013-11-28 11:41:00,37.5,28.2,30.24,East,87,1.0,7.0,69,0.00,,,0.00,Weather View 32 v70,2013-11-28 19:41:00,
2013-11-28 11:46:00,37.6,28.3,30.23,East,87,2.0,7.0,69,0.00,,,0.00,Weather View 32 v70,2013-11-28 19:46:00,
2013-11-28 11:51:00,37.8,27.8,30.23,East,87,0.0,7.0,67,0.00,,,0.00,Weather View 32 v70,2013-11-28 19:51:00,
2013-11-28 11:56:00,37.9,28.3,30.23,East,87,0.0,7.0,68,0.00,,,0.00,Weather View 32 v70,2013-11-28 19:56:00,
2013-11-28 12:01:00,38.2,28.2,30.23,East,87,2.0,7.0,67,0.00,,,0.00,Weather View 32 v70,2013-11-28 20:01:00,
2013-11-28 12:06:00,38.2,27.8,30.23,East,87,6.0,6.0,66,0.00,,,0.00,Weather View 32 v70,2013-11-28 20:06:00,
2013-11-28 12:11:00,38.0,28.0,30.23,East,86,2.0,6.0,67,0.00,,,0.00,Weather View 32 v70,2013-11-28 20:11:00,
2013-11-28 12:16:00,38.0,28.4,30.23,East,84,3.0,7.0,68,0.00,,,0.00,Weather View 32 v70,2013-11-28 20:16:00,
2013-11-28 12:21:00,38.2,28.6,30.23,East,84,2.0,7.0,68,0.00,,,0.00,Weather View 32 v70,2013-11-28 20:21:00,
2013-11-28 12:26:00,38.3,28.7,30.23,East,84,0.0,7.0,68,0.00,,,0.00,Weather View 32 v70,2013-11-28 20:26:00,
2013-11-28 12:31:00,38.3,28.3,30.22,East,84,1.0,7.0,67,0.00,,,0.00,Weather View 32 v70,2013-11-28 20:31:00,
2013-11-28 12:36:00,38.9,28.1,30.22,East,84,1.0,7.0,65,0.00,,,0.00,Weather View 32 v70,2013-11-28 20:36:00,
2013-11-28 12:41:00,39.2,28.4,30.22,East,84,0.0,7.0,65,0.00,,,0.00,Weather View 32 v70,2013-11-28 20:41:00,
2013-11-28 12:46:00,39.3,28.5,30.21,East,84,0.0,7.0,65,0.00,,,0.00,Weather View 32 v70,2013-11-28 20:46:00,
2013-11-28 12:51:00,39.9,29.1,30.21,East,84,0.0,7.0,65,0.00,,,0.00,Weather View 32 v70,2013-11-28 20:51:00,
2013-11-28 12:56:00,40.1,29.3,30.21,East,84,0.0,7.0,65,0.00,,,0.00,Weather View 32 v70,2013-11-28 20:56:00,
2013-11-28 13:01:00,40.6,29.7,30.21,East,84,0.0,7.0,65,0.00,,,0.00,Weather View 32 v70,2013-11-28 21:01:00,
2013-11-28 13:06:00,41.3,29.6,30.21,East,84,0.0,7.0,63,0.00,,,0.00,Weather View 32 v70,2013-11-28 21:06:00,
2013-11-28 13:11:00,41.8,29.3,30.20,East,84,0.0,7.0,61,0.00,,,0.00,Weather View 32 v70,2013-11-28 21:11:00,
2013-11-28 13:16:00,42.2,29.7,30.20,East,84,0.0,7.0,61,0.00,,,0.00,Weather View 32 v70,2013-11-28 21:16:00,
2013-11-28 13:21:00,42.5,29.6,30.20,East,84,0.0,5.0,60,0.00,,,0.00,Weather View 32 v70,2013-11-28 21:21:00,
2013-11-28 13:26:00,42.9,30.0,30.20,East,84,0.0,5.0,60,0.00,,,0.00,Weather View 32 v70,2013-11-28 21:26:00,
2013-11-28 13:31:00,42.9,30.0,30.20,East,84,2.0,5.0,60,0.00,,,0.00,Weather View 32 v70,2013-11-28 21:31:00,
2013-11-28 13:36:00,42.5,30.0,30.20,East,84,1.0,5.0,61,0.00,,,0.00,Weather View 32 v70,2013-11-28 21:36:00,
2013-11-28 13:41:00,42.3,30.2,30.20,East,84,0.0,3.0,62,0.00,,,0.00,Weather View 32 v70,2013-11-28 21:41:00,
2013-11-28 13:46:00,42.2,30.1,30.20,East,84,2.0,5.0,62,0.00,,,0.00,Weather View 32 v70,2013-11-28 21:46:00,
2013-11-28 13:51:00,42.2,29.7,30.20,East,84,1.0,5.0,61,0.00,,,0.00,Weather View 32 v70,2013-11-28 21:51:00,
2013-11-28 13:56:00,42.1,30.0,30.19,East,84,0.0,5.0,62,0.00,,,0.00,Weather View 32 v70,2013-11-28 21:56:00,
2013-11-28 14:01:00,42.2,30.1,30.19,East,84,1.0,5.0,62,0.00,,,0.00,Weather View 32 v70,2013-11-28 22:01:00,
2013-11-28 14:06:00,42.2,30.1,30.19,East,84,1.0,5.0,62,0.00,,,0.00,Weather View 32 v70,2013-11-28 22:06:00,
2013-11-28 14:11:00,42.1,30.0,30.20,East,84,0.0,5.0,62,0.00,,,0.00,Weather View 32 v70,2013-11-28 22:11:00,
2013-11-28 14:16:00,42.1,30.4,30.19,East,84,0.0,5.0,63,0.00,,,0.00,Weather View 32 v70,2013-11-28 22:16:00,
2013-11-28 14:21:00,42.1,30.0,30.19,East,84,0.0,5.0,62,0.00,,,0.00,Weather View 32 v70,2013-11-28 22:21:00,
2013-11-28 14:26:00,42.1,29.6,30.19,East,84,0.0,5.0,61,0.00,,,0.00,Weather View 32 v70,2013-11-28 22:26:00,
2013-11-28 14:31:00,42.2,29.7,30.19,East,84,0.0,5.0,61,0.00,,,0.00,Weather View 32 v70,2013-11-28 22:31:00,
2013-11-28 14:36:00,42.3,30.2,30.19,East,84,1.0,5.0,62,0.00,,,0.00,Weather View 32 v70,2013-11-28 22:36:00,
2013-11-28 14:41:00,42.3,30.2,30.19,East,84,0.0,5.0,62,0.00,,,0.00,Weather View 32 v70,2013-11-28 22:41:00,
2013-11-28 14:46:00,42.2,30.9,30.19,East,84,0.0,5.0,64,0.00,,,0.00,Weather View 32 v70,2013-11-28 22:46:00,
2013-11-28 14:51:00,42.2,30.5,30.19,East,84,0.0,3.0,63,0.00,,,0.00,Weather View 32 v70,2013-11-28 22:51:00,
2013-11-28 14:56:00,42.3,30.6,30.19,East,84,0.0,3.0,63,0.00,,,0.00,Weather View 32 v70,2013-11-28 22:56:00,
2013-11-28 15:01:00,42.3,30.2,30.19,East,84,0.0,3.0,62,0.00,,,0.00,Weather View 32 v70,2013-11-28 23:01:00,
2013-11-28 15:06:00,42.3,30.6,30.19,East,84,0.0,3.0,63,0.00,,,0.00,Weather View 32 v70,2013-11-28 23:06:00,
2013-11-28 15:11:00,42.2,30.5,30.19,East,84,0.0,3.0,63,0.00,,,0.00,Weather View 32 v70,2013-11-28 23:11:00,
2013-11-28 15:16:00,42.1,30.4,30.19,East,84,0.0,3.0,63,0.00,,,0.00,Weather View 32 v70,2013-11-28 23:16:00,
2013-11-28 15:20:00,41.6,30.3,30.19,East,84,0.0,3.0,64,0.00,,,0.00,Weather View 32 v70,2013-11-28 23:20:00,
2013-11-28 15:25:00,41.3,30.4,30.19,East,84,0.0,3.0,65,0.00,,,0.00,Weather View 32 v70,2013-11-28 23:25:00,
2013-11-28 15:30:00,41.1,30.2,30.19,East,84,0.0,3.0,65,0.00,,,0.00,Weather View 32 v70,2013-11-28 23:30:00,
2013-11-28 15:35:00,40.9,30.4,30.19,East,84,0.0,3.0,66,0.00,,,0.00,Weather View 32 v70,2013-11-28 23:35:00,
2013-11-28 15:40:00,40.6,30.1,30.19,East,84,0.0,3.0,66,0.00,,,0.00,Weather View 32 v70,2013-11-28 23:40:00,
2013-11-28 15:45:00,40.3,30.2,30.19,East,84,0.0,3.0,67,0.00,,,0.00,Weather View 32 v70,2013-11-28 23:45:00,
2013-11-28 15:50:00,40.1,30.4,30.19,East,84,0.0,3.0,68,0.00,,,0.00,Weather View 32 v70,2013-11-28 23:50:00,
2013-11-28 15:55:00,39.8,30.1,30.19,East,84,0.0,3.0,68,0.00,,,0.00,Weather View 32 v70,2013-11-28 23:55:00,
2013-11-28 16:00:00,39.3,29.6,30.19,East,84,0.0,2.0,68,0.00,,,0.00,Weather View 32 v70,2013-11-29 00:00:00,
2013-11-28 16:05:00,39.1,29.8,30.19,East,84,0.0,2.0,69,0.00,,,0.00,Weather View 32 v70,2013-11-29 00:05:00,
2013-11-28 16:10:00,38.5,29.2,30.20,East,84,0.0,2.0,69,0.00,,,0.00,Weather View 32 v70,2013-11-29 00:10:00,
2013-11-28 16:15:00,38.0,29.1,30.20,East,84,0.0,2.0,70,0.00,,,0.00,Weather View 32 v70,2013-11-29 00:15:00,
2013-11-28 16:20:00,37.6,29.0,30.20,East,84,0.0,2.0,71,0.00,,,0.00,Weather View 32 v70,2013-11-29 00:20:00,
2013-11-28 16:25:00,37.3,29.4,30.20,East,84,0.0,0.0,73,0.00,,,0.00,Weather View 32 v70,2013-11-29 00:25:00,
2013-11-28 16:30:00,37.0,29.1,30.20,East,84,0.0,1.0,73,0.00,,,0.00,Weather View 32 v70,2013-11-29 00:30:00,
2013-11-28 16:35:00,36.5,28.7,30.20,East,84,0.0,1.0,73,0.00,,,0.00,Weather View 32 v70,2013-11-29 00:35:00,
2013-11-28 16:40:00,36.2,28.7,30.20,East,84,0.0,1.0,74,0.00,,,0.00,Weather View 32 v70,2013-11-29 00:40:00,
2013-11-28 16:45:00,35.8,28.6,30.21,East,84,0.0,1.0,75,0.00,,,0.00,Weather View 32 v70,2013-11-29 00:45:00,
2013-11-28 16:50:00,35.6,28.8,30.21,East,84,0.0,1.0,76,0.00,,,0.00,Weather View 32 v70,2013-11-29 00:50:00,
2013-11-28 16:55:00,35.3,28.5,30.21,East,84,0.0,1.0,76,0.00,,,0.00,Weather View 32 v70,2013-11-29 00:55:00,
2013-11-28 17:00:00,34.9,28.1,30.21,East,84,0.0,1.0,76,0.00,,,0.00,Weather View 32 v70,2013-11-29 01:00:00,
2013-11-28 17:05:00,34.4,27.9,30.21,East,84,0.0,1.0,77,0.00,,,0.00,Weather View 32 v70,2013-11-29 01:05:00,
2013-11-28 17:10:00,34.1,28.0,30.21,East,84,0.0,1.0,78,0.00,,,0.00,Weather View 32 v70,2013-11-29 01:10:00,
2013-11-28 17:15:00,33.8,28.0,30.21,East,84,0.0,1.0,79,0.00,,,0.00,Weather View 32 v70,2013-11-29 01:15:00,
2013-11-28 17:20:00,33.5,27.7,30.22,East,84,0.0,1.0,79,0.00,,,0.00,Weather View 32 v70,2013-11-29 01:20:00,
2013-11-28 17:25:00,33.2,27.7,30.22,East,84,0.0,1.0,80,0.00,,,0.00,Weather View 32 v70,2013-11-29 01:25:00,
2013-11-28 17:30:00,33.2,28.0,30.22,East,84,0.0,0.0,81,0.00,,,0.00,Weather View 32 v70,2013-11-29 01:30:00,
2013-11-28 17:35:00,33.1,27.9,30.22,East,84,0.0,0.0,81,0.00,,,0.00,Weather View 32 v70,2013-11-29 01:35:00,
2013-11-28 17:40:00,32.8,27.6,30.22,East,84,0.0,0.0,81,0.00,,,0.00,Weather View 32 v70,2013-11-29 01:40:00,
2013-11-28 17:45:00,32.5,27.3,30.22,East,84,0.0,0.0,81,0.00,,,0.00,Weather View 32 v70,2013-11-29 01:45:00,
2013-11-28 17:50:00,32.5,27.6,30.22,East,84,0.0,0.0,82,0.00,,,0.00,Weather View 32 v70,2013-11-29 01:50:00,
2013-11-28 17:55:00,32.4,27.5,30.22,East,84,0.0,0.0,82,0.00,,,0.00,Weather View 32 v70,2013-11-29 01:55:00,
2013-11-28 18:00:00,32.4,27.5,30.22,East,84,0.0,0.0,82,0.00,,,0.00,Weather View 32 v70,2013-11-29 02:00:00,
2013-11-28 18:05:00,32.4,27.5,30.22,East,84,0.0,0.0,82,0.00,,,0.00,Weather View 32 v70,2013-11-29 02:05:00,
2013-11-28 18:11:00,32.4,27.8,30.22,East,84,0.0,0.0,83,0.00,,,0.00,Weather View 32 v70,2013-11-29 02:11:00,
2013-11-28 18:16:00,32.4,27.5,30.22,East,84,3.0,3.0,82,0.00,,,0.00,Weather View 32 v70,2013-11-29 02:16:00,
2013-11-28 18:21:00,32.4,27.5,30.22,East,84,0.0,3.0,82,0.00,,,0.00,Weather View 32 v70,2013-11-29 02:21:00,
2013-11-28 18:26:00,32.2,27.3,30.23,East,84,0.0,3.0,82,0.00,,,0.00,Weather View 32 v70,2013-11-29 02:26:00,
2013-11-28 18:31:00,32.1,27.2,30.22,East,84,2.0,3.0,82,0.00,,,0.00,Weather View 32 v70,2013-11-29 02:31:00,
2013-11-28 18:36:00,32.2,27.6,30.22,East,84,0.0,3.0,83,0.00,,,0.00,Weather View 32 v70,2013-11-29 02:36:00,
2013-11-28 18:41:00,32.2,27.6,30.23,East,84,0.0,3.0,83,0.00,,,0.00,Weather View 32 v70,2013-11-29 02:41:00,
2013-11-28 18:46:00,32.2,27.6,30.23,East,84,0.0,3.0,83,0.00,,,0.00,Weather View 32 v70,2013-11-29 02:46:00,
2013-11-28 18:51:00,32.2,27.3,30.23,East,84,0.0,3.0,82,0.00,,,0.00,Weather View 32 v70,2013-11-29 02:51:00,
2013-11-28 18:56:00,31.9,27.0,30.23,East,84,0.0,3.0,82,0.00,,,0.00,Weather View 32 v70,2013-11-29 02:56:00,
2013-11-28 19:00:00,31.5,26.6,30.23,East,84,2.0,3.0,82,0.00,,,0.00,Weather View 32 v70,2013-11-29 03:00:00,
2013-11-28 19:06:00,31.5,26.9,30.23,East,84,0.0,3.0,83,0.00,,,0.00,Weather View 32 v70,2013-11-29 03:06:00,
2013-11-28 19:10:00,31.3,26.7,30.23,East,84,2.0,3.0,83,0.00,,,0.00,Weather View 32 v70,2013-11-29 03:10:00,
2013-11-28 19:15:00,31.5,27.2,30.23,East,84,2.0,3.0,84,0.00,,,0.00,Weather View 32 v70,2013-11-29 03:15:00,
2013-11-28 19:20:00,31.3,27.0,30.24,East,84,0.0,3.0,84,0.00,,,0.00,Weather View 32 v70,2013-11-29 03:20:00,
2013-11-28 19:25:00,31.3,27.0,30.24,East,84,0.0,3.0,84,0.00,,,0.00,Weather View 32 v70,2013-11-29 03:25:00,
2013-11-28 19:30:00,31.0,26.7,30.24,East,84,0.0,3.0,84,0.00,,,0.00,Weather View 32 v70,2013-11-29 03:30:00,
2013-11-28 19:35:00,30.7,26.4,30.24,East,84,0.0,3.0,84,0.00,,,0.00,Weather View 32 v70,2013-11-29 03:35:00,
2013-11-28 19:40:00,30.6,26.3,30.24,East,84,0.0,3.0,84,0.00,,,0.00,Weather View 32 v70,2013-11-29 03:40:00,
2013-11-28 19:45:00,30.4,26.1,30.24,East,84,0.0,3.0,84,0.00,,,0.00,Weather View 32 v70,2013-11-29 03:45:00,
2013-11-28 19:50:00,30.3,26.0,30.24,East,84,1.0,3.0,84,0.00,,,0.00,Weather View 32 v70,2013-11-29 03:50:00,
2013-11-28 19:55:00,30.1,25.9,30.24,East,84,0.0,3.0,84,0.00,,,0.00,Weather View 32 v70,2013-11-29 03:55:00,
2013-11-28 20:00:00,30.1,26.1,30.25,East,84,0.0,3.0,85,0.00,,,0.00,Weather View 32 v70,2013-11-29 04:00:00,
2013-11-28 20:05:00,30.0,26.0,30.25,East,84,0.0,3.0,85,0.00,,,0.00,Weather View 32 v70,2013-11-29 04:05:00,
2013-11-28 20:10:00,30.0,26.0,30.25,East,84,0.0,3.0,85,0.00,,,0.00,Weather View 32 v70,2013-11-29 04:10:00,
2013-11-28 20:16:00,29.8,25.8,30.25,East,84,0.0,3.0,85,0.00,,,0.00,Weather View 32 v70,2013-11-29 04:16:00,
2013-11-28 20:20:00,29.8,25.8,30.25,East,84,1.0,3.0,85,0.00,,,0.00,Weather View 32 v70,2013-11-29 04:20:00,
2013-11-28 20:25:00,29.8,25.8,30.25,East,84,1.0,3.0,85,0.00,,,0.00,Weather View 32 v70,2013-11-29 04:25:00,
2013-11-28 20:30:00,29.8,25.8,30.25,East,84,0.0,3.0,85,0.00,,,0.00,Weather View 32 v70,2013-11-29 04:30:00,
2013-11-28 20:35:00,29.7,25.7,30.25,East,84,0.0,3.0,85,0.00,,,0.00,Weather View 32 v70,2013-11-29 04:35:00,
2013-11-28 20:40:00,29.5,25.5,30.25,East,84,0.0,3.0,85,0.00,,,0.00,Weather View 32 v70,2013-11-29 04:40:00,
2013-11-28 20:45:00,29.4,25.4,30.25,East,84,0.0,3.0,85,0.00,,,0.00,Weather View 32 v70,2013-11-29 04:45:00,
2013-11-28 20:50:00,29.3,25.6,30.25,East,84,0.0,3.0,86,0.00,,,0.00,Weather View 32 v70,2013-11-29 04:50:00,
2013-11-28 20:55:00,29.4,25.7,30.26,East,84,1.0,3.0,86,0.00,,,0.00,Weather View 32 v70,2013-11-29 04:55:00,
2013-11-28 21:00:00,29.4,25.7,30.26,East,84,2.0,3.0,86,0.00,,,0.00,Weather View 32 v70,2013-11-29 05:00:00,
2013-11-28 21:01:00,29.4,25.7,30.26,East,84,3.0,3.0,86,0.00,,,0.00,Weather View 32 v70,2013-11-29 05:01:00,
2013-11-28 21:02:00,29.4,25.7,30.26,East,84,1.0,3.0,86,0.00,,,0.00,Weather View 32 v70,2013-11-29 05:02:00,
2013-11-28 21:07:00,29.4,25.7,30.26,East,84,0.0,3.0,86,0.00,,,0.00,Weather View 32 v70,2013-11-29 05:07:00,
2013-11-28 21:12:00,29.3,25.6,30.25,East,84,0.0,3.0,86,0.00,,,0.00,Weather View 32 v70,2013-11-29 05:12:00,
2013-11-28 21:17:00,29.3,25.9,30.25,East,84,0.0,3.0,87,0.00,,,0.00,Weather View 32 v70,2013-11-29 05:17:00,
2013-11-28 21:22:00,29.4,26.0,30.25,East,84,0.0,3.0,87,0.00,,,0.00,Weather View 32 v70,2013-11-29 05:22:00,
2013-11-28 21:27:00,29.4,26.0,30.25,East,84,0.0,3.0,87,0.00,,,0.00,Weather View 32 v70,2013-11-29 05:27:00,
2013-11-28 21:32:00,29.3,25.6,30.26,East,84,0.0,3.0,86,0.00,,,0.00,Weather View 32 v70,2013-11-29 05:32:00,
2013-11-28 21:37:00,29.1,25.4,30.26,East,84,0.0,3.0,86,0.00,,,0.00,Weather View 32 v70,2013-11-29 05:37:00,
2013-11-28 21:42:00,29.1,25.4,30.26,East,84,0.0,3.0,86,0.00,,,0.00,Weather View 32 v70,2013-11-29 05:42:00,
2013-11-28 21:47:00,29.0,25.3,30.26,East,84,0.0,3.0,86,0.00,,,0.00,Weather View 32 v70,2013-11-29 05:47:00,
2013-11-28 21:52:00,28.8,25.1,30.26,East,84,0.0,3.0,86,0.00,,,0.00,Weather View 32 v70,2013-11-29 05:52:00,
2013-11-28 21:57:00,28.8,25.4,30.26,East,84,0.0,3.0,87,0.00,,,0.00,Weather View 32 v70,2013-11-29 05:57:00,
2013-11-28 22:02:00,28.7,25.3,30.26,East,84,0.0,3.0,87,0.00,,,0.00,Weather View 32 v70,2013-11-29 06:02:00,
2013-11-28 22:07:00,28.7,25.3,30.27,East,84,1.0,3.0,87,0.00,,,0.00,Weather View 32 v70,2013-11-29 06:07:00,
2013-11-28 22:12:00,28.7,25.3,30.27,East,84,0.0,3.0,87,0.00,,,0.00,Weather View 32 v70,2013-11-29 06:12:00,
2013-11-28 22:17:00,28.7,25.3,30.27,East,84,2.0,3.0,87,0.00,,,0.00,Weather View 32 v70,2013-11-29 06:17:00,
2013-11-28 22:22:00,28.8,25.7,30.27,East,84,1.0,3.0,88,0.00,,,0.00,Weather View 32 v70,2013-11-29 06:22:00,
2013-11-28 22:27:00,28.8,25.7,30.27,East,84,0.0,3.0,88,0.00,,,0.00,Weather View 32 v70,2013-11-29 06:27:00,
2013-11-28 22:32:00,28.8,25.7,30.27,East,84,1.0,3.0,88,0.00,,,0.00,Weather View 32 v70,2013-11-29 06:32:00,
2013-11-28 22:37:00,28.8,25.7,30.27,East,84,0.0,3.0,88,0.00,,,0.00,Weather View 32 v70,2013-11-29 06:37:00,
2013-11-28 22:42:00,28.7,25.6,30.27,East,84,0.0,3.0,88,0.00,,,0.00,Weather View 32 v70,2013-11-29 06:42:00,
2013-11-28 22:47:00,28.7,25.6,30.28,East,84,0.0,3.0,88,0.00,,,0.00,Weather View 32 v70,2013-11-29 06:47:00,
2013-11-28 22:52:00,28.4,25.0,30.28,East,84,0.0,3.0,87,0.00,,,0.00,Weather View 32 v70,2013-11-29 06:52:00,
2013-11-28 22:57:00,28.1,24.7,30.28,East,84,0.0,3.0,87,0.00,,,0.00,Weather View 32 v70,2013-11-29 06:57:00,
2013-11-28 23:02:00,27.9,24.5,30.28,East,84,0.0,3.0,87,0.00,,,0.00,Weather View 32 v70,2013-11-29 07:02:00,
2013-11-28 23:07:00,27.6,24.2,30.29,East,84,2.0,3.0,87,0.00,,,0.00,Weather View 32 v70,2013-11-29 07:07:00,
2013-11-28 23:12:00,27.6,24.5,30.29,East,84,1.0,3.0,88,0.00,,,0.00,Weather View 32 v70,2013-11-29 07:12:00,
2013-11-28 23:17:00,27.6,24.5,30.29,East,84,0.0,3.0,88,0.00,,,0.00,Weather View 32 v70,2013-11-29 07:17:00,
2013-11-28 23:22:00,27.5,24.4,30.29,East,84,0.0,3.0,88,0.00,,,0.00,Weather View 32 v70,2013-11-29 07:22:00,
2013-11-28 23:27:00,27.5,24.4,30.28,East,84,0.0,3.0,88,0.00,,,0.00,Weather View 32 v70,2013-11-29 07:27:00,
2013-11-28 23:32:00,27.5,24.4,30.28,East,84,0.0,3.0,88,0.00,,,0.00,Weather View 32 v70,2013-11-29 07:32:00,
2013-11-28 23:37:00,27.5,24.4,30.28,East,84,0.0,3.0,88,0.00,,,0.00,Weather View 32 v70,2013-11-29 07:37:00,
2013-11-28 23:42:00,27.3,24.2,30.29,East,84,0.0,3.0,88,0.00,,,0.00,Weather View 32 v70,2013-11-29 07:42:00,
2013-11-28 23:47:00,27.2,24.1,30.29,East,84,0.0,3.0,88,0.00,,,0.00,Weather View 32 v70,2013-11-29 07:47:00,
2013-11-28 23:52:00,27.2,24.1,30.29,East,84,0.0,3.0,88,0.00,,,0.00,Weather View 32 v70,2013-11-29 07:52:00,
2013-11-28 23:57:00,27.0,23.9,30.29,East,84,0.0,3.0,88,0.00,,,0.00,Weather View 32 v70,2013-11-29 07:57:00,